FFT4093 KCLT-KMCO
Flight info
| Callsign | FFT4093 |
|---|---|
| Flight time | 1h 14m |
| Altitude | 36000 |
| Route | ICONS5 NOOKS WURFL Q83 ROYCO Q85 LPERD SNFLD3 |
| Aircraft | A321/M-SDE3FGHIRWY/LB1 |
Departure
| Time | 2026-04-19 23:39 |
|---|---|
| Airport | Charlotte Douglas International Airport (KCLT) |
Arrival
| Time | 2026-04-20 00:53 |
|---|---|
| Airport | Orlando International Airport (KMCO) |
| Time | Latitude | Longitude | Altitude | Speed | Heading |
|---|---|---|---|---|---|
| 2026-04-19 23:05 | 35.22221 | -80.94839 | 732 ft | 0 kts | 54° |
| 2026-04-19 23:17 | 35.22220 | -80.94840 | 732 ft | 1 kts | 54° |
| 2026-04-19 23:17 | 35.22206 | -80.94862 | 732 ft | 4 kts | 56° |
| 2026-04-19 23:17 | 35.22196 | -80.94889 | 733 ft | 4 kts | 102° |
| 2026-04-19 23:18 | 35.22213 | -80.94909 | 730 ft | 2 kts | 176° |
| 2026-04-19 23:18 | 35.22230 | -80.94910 | 733 ft | 4 kts | 176° |
| 2026-04-19 23:18 | 35.22239 | -80.94911 | 732 ft | 0 kts | 176° |
| 2026-04-19 23:22 | 35.22238 | -80.94911 | 732 ft | 1 kts | 176° |
| 2026-04-19 23:22 | 35.22190 | -80.94911 | 730 ft | 11 kts | 194° |
| 2026-04-19 23:23 | 35.22140 | -80.94967 | 732 ft | 9 kts | 220° |
| 2026-04-19 23:23 | 35.22117 | -80.95025 | 733 ft | 7 kts | 245° |
| 2026-04-19 23:23 | 35.22071 | -80.95058 | 734 ft | 12 kts | 183° |
| 2026-04-19 23:23 | 35.21978 | -80.95048 | 734 ft | 13 kts | 176° |
| 2026-04-19 23:24 | 35.21898 | -80.95045 | 734 ft | 11 kts | 179° |
| 2026-04-19 23:24 | 35.21827 | -80.95040 | 734 ft | 10 kts | 173° |
| 2026-04-19 23:24 | 35.21764 | -80.95034 | 734 ft | 9 kts | 176° |
| 2026-04-19 23:24 | 35.21700 | -80.95029 | 734 ft | 13 kts | 177° |
| 2026-04-19 23:25 | 35.21578 | -80.95017 | 733 ft | 18 kts | 175° |
| 2026-04-19 23:25 | 35.21461 | -80.95008 | 733 ft | 16 kts | 175° |
| 2026-04-19 23:25 | 35.21356 | -80.94998 | 733 ft | 14 kts | 176° |
| 2026-04-19 23:25 | 35.21266 | -80.94991 | 733 ft | 12 kts | 176° |
| 2026-04-19 23:26 | 35.21197 | -80.94970 | 732 ft | 9 kts | 136° |
| 2026-04-19 23:26 | 35.21198 | -80.94903 | 732 ft | 8 kts | 62° |
| 2026-04-19 23:26 | 35.21231 | -80.94854 | 732 ft | 7 kts | 47° |
| 2026-04-19 23:26 | 35.21272 | -80.94793 | 731 ft | 15 kts | 55° |
| 2026-04-19 23:27 | 35.21316 | -80.94670 | 732 ft | 16 kts | 71° |
| 2026-04-19 23:27 | 35.21340 | -80.94576 | 731 ft | 0 kts | 62° |
| 2026-04-19 23:28 | 35.21361 | -80.94555 | 731 ft | 12 kts | 43° |
| 2026-04-19 23:28 | 35.21405 | -80.94495 | 732 ft | 6 kts | 51° |
| 2026-04-19 23:29 | 35.21427 | -80.94462 | 732 ft | 5 kts | 50° |
| 2026-04-19 23:29 | 35.21479 | -80.94392 | 731 ft | 10 kts | 47° |
| 2026-04-19 23:29 | 35.21525 | -80.94326 | 731 ft | 10 kts | 47° |
| 2026-04-19 23:29 | 35.21575 | -80.94261 | 732 ft | 11 kts | 47° |
| 2026-04-19 23:30 | 35.21624 | -80.94193 | 732 ft | 11 kts | 49° |
| 2026-04-19 23:30 | 35.21672 | -80.94125 | 732 ft | 11 kts | 48° |
| 2026-04-19 23:30 | 35.21718 | -80.94058 | 732 ft | 9 kts | 65° |
| 2026-04-19 23:30 | 35.21703 | -80.93995 | 732 ft | 8 kts | 130° |
| 2026-04-19 23:31 | 35.21667 | -80.93953 | 733 ft | 6 kts | 138° |
| 2026-04-19 23:31 | 35.21636 | -80.93919 | 732 ft | 8 kts | 137° |
| 2026-04-19 23:31 | 35.21578 | -80.93857 | 733 ft | 12 kts | 140° |
| 2026-04-19 23:31 | 35.21519 | -80.93794 | 732 ft | 10 kts | 137° |
| 2026-04-19 23:32 | 35.21471 | -80.93739 | 733 ft | 9 kts | 137° |
| 2026-04-19 23:32 | 35.21431 | -80.93693 | 733 ft | 7 kts | 139° |
| 2026-04-19 23:32 | 35.21395 | -80.93666 | 733 ft | 5 kts | 157° |
| 2026-04-19 23:32 | 35.21348 | -80.93656 | 733 ft | 10 kts | 175° |
| 2026-04-19 23:33 | 35.21279 | -80.93650 | 733 ft | 9 kts | 176° |
| 2026-04-19 23:33 | 35.21211 | -80.93644 | 733 ft | 13 kts | 176° |
| 2026-04-19 23:33 | 35.21113 | -80.93636 | 733 ft | 14 kts | 176° |
| 2026-04-19 23:33 | 35.21022 | -80.93628 | 733 ft | 12 kts | 176° |
| 2026-04-19 23:34 | 35.20946 | -80.93621 | 733 ft | 10 kts | 175° |
| 2026-04-19 23:34 | 35.20879 | -80.93615 | 733 ft | 9 kts | 176° |
| 2026-04-19 23:34 | 35.20810 | -80.93610 | 733 ft | 13 kts | 176° |
| 2026-04-19 23:34 | 35.20725 | -80.93601 | 733 ft | 11 kts | 175° |
| 2026-04-19 23:35 | 35.20652 | -80.93596 | 733 ft | 11 kts | 176° |
| 2026-04-19 23:35 | 35.20545 | -80.93587 | 733 ft | 19 kts | 175° |
| 2026-04-19 23:35 | 35.20417 | -80.93577 | 733 ft | 16 kts | 175° |
| 2026-04-19 23:35 | 35.20332 | -80.93570 | 733 ft | 11 kts | 176° |
| 2026-04-19 23:36 | 35.20261 | -80.93564 | 733 ft | 10 kts | 176° |
| 2026-04-19 23:36 | 35.20199 | -80.93558 | 733 ft | 8 kts | 176° |
| 2026-04-19 23:36 | 35.20146 | -80.93554 | 733 ft | 7 kts | 179° |
| 2026-04-19 23:36 | 35.20126 | -80.93545 | 733 ft | 0 kts | 149° |
| 2026-04-19 23:37 | 35.20120 | -80.93539 | 733 ft | 3 kts | 137° |
| 2026-04-19 23:38 | 35.20115 | -80.93524 | 733 ft | 1 kts | 115° |
| 2026-04-19 23:38 | 35.20105 | -80.93479 | 733 ft | 9 kts | 95° |
| 2026-04-19 23:38 | 35.20121 | -80.93428 | 732 ft | 11 kts | 40° |
| 2026-04-19 23:38 | 35.20272 | -80.93432 | 736 ft | 47 kts | 353° |
| 2026-04-19 23:39 | 35.20835 | -80.93465 | 735 ft | 112 kts | 355° |
| 2026-04-19 23:39 | 35.21785 | -80.93559 | 738 ft | 161 kts | 356° |
| 2026-04-19 23:39 | 35.22961 | -80.93613 | 1229 ft | 162 kts | 357° |
| 2026-04-19 23:39 | 35.23977 | -80.93507 | 2237 ft | 135 kts | 7° |
| 2026-04-19 23:40 | 35.24932 | -80.93130 | 2627 ft | 156 kts | 15° |
| 2026-04-19 23:40 | 35.26003 | -80.92686 | 3002 ft | 165 kts | 14° |
| 2026-04-19 23:40 | 35.27097 | -80.92308 | 3524 ft | 164 kts | 9° |
| 2026-04-19 23:40 | 35.28196 | -80.91769 | 3784 ft | 186 kts | 40° |
| 2026-04-19 23:41 | 35.28770 | -80.90244 | 3941 ft | 218 kts | 84° |
| 2026-04-19 23:41 | 35.28303 | -80.88422 | 4084 ft | 245 kts | 126° |
| 2026-04-19 23:41 | 35.26845 | -80.87188 | 4241 ft | 270 kts | 166° |
| 2026-04-19 23:41 | 35.24947 | -80.87103 | 4782 ft | 279 kts | 190° |
| 2026-04-19 23:42 | 35.23031 | -80.87586 | 5548 ft | 281 kts | 197° |
| 2026-04-19 23:42 | 35.21118 | -80.88196 | 6261 ft | 286 kts | 198° |
| 2026-04-19 23:42 | 35.19163 | -80.88772 | 6994 ft | 290 kts | 196° |
| 2026-04-19 23:42 | 35.17181 | -80.89256 | 7689 ft | 294 kts | 194° |
| 2026-04-19 23:43 | 35.15136 | -80.89663 | 8410 ft | 299 kts | 193° |
| 2026-04-19 23:43 | 35.13057 | -80.90013 | 9124 ft | 302 kts | 192° |
| 2026-04-19 23:43 | 35.10983 | -80.90322 | 9838 ft | 305 kts | 192° |
| 2026-04-19 23:43 | 35.08850 | -80.90624 | 10336 ft | 316 kts | 192° |
| 2026-04-19 23:44 | 35.06585 | -80.90949 | 10476 ft | 338 kts | 192° |
| 2026-04-19 23:44 | 35.04210 | -80.91290 | 10906 ft | 345 kts | 192° |
| 2026-04-19 23:44 | 35.01808 | -80.91628 | 11568 ft | 350 kts | 192° |
| 2026-04-19 23:44 | 34.99360 | -80.91972 | 12030 ft | 358 kts | 192° |
| 2026-04-19 23:45 | 34.96869 | -80.92320 | 12703 ft | 360 kts | 192° |
| 2026-04-19 23:45 | 34.94373 | -80.92670 | 13418 ft | 361 kts | 192° |
| 2026-04-19 23:45 | 34.91907 | -80.93017 | 14112 ft | 362 kts | 193° |
| 2026-04-19 23:45 | 34.89390 | -80.93374 | 14709 ft | 363 kts | 193° |
| 2026-04-19 23:46 | 34.86866 | -80.93735 | 15306 ft | 365 kts | 193° |
| 2026-04-19 23:46 | 34.84355 | -80.94094 | 15874 ft | 368 kts | 193° |
| 2026-04-19 23:46 | 34.81805 | -80.94461 | 16433 ft | 371 kts | 193° |
| 2026-04-19 23:46 | 34.79223 | -80.94832 | 16987 ft | 374 kts | 193° |
| 2026-04-19 23:47 | 34.76608 | -80.95204 | 17529 ft | 377 kts | 193° |
| 2026-04-19 23:47 | 34.73977 | -80.95579 | 18068 ft | 380 kts | 193° |
| 2026-04-19 23:47 | 34.71331 | -80.95959 | 18579 ft | 383 kts | 193° |
| 2026-04-19 23:47 | 34.68699 | -80.96335 | 19037 ft | 386 kts | 194° |
| 2026-04-19 23:48 | 34.66021 | -80.96714 | 19523 ft | 387 kts | 194° |
| 2026-04-19 23:48 | 34.63339 | -80.97094 | 19976 ft | 389 kts | 194° |
| 2026-04-19 23:48 | 34.60635 | -80.97460 | 20445 ft | 391 kts | 193° |
| 2026-04-19 23:48 | 34.57947 | -80.97752 | 20923 ft | 393 kts | 192° |
| 2026-04-19 23:49 | 34.55205 | -80.98001 | 21382 ft | 396 kts | 192° |
| 2026-04-19 23:49 | 34.52439 | -80.98231 | 21842 ft | 397 kts | 192° |
| 2026-04-19 23:49 | 34.49707 | -80.98455 | 22306 ft | 399 kts | 192° |
| 2026-04-19 23:49 | 34.46922 | -80.98689 | 22757 ft | 401 kts | 193° |
| 2026-04-19 23:50 | 34.44130 | -80.98935 | 23211 ft | 402 kts | 193° |
| 2026-04-19 23:50 | 34.41326 | -80.99194 | 23649 ft | 404 kts | 193° |
| 2026-04-19 23:50 | 34.38518 | -80.99460 | 23982 ft | 406 kts | 193° |
| 2026-04-19 23:50 | 34.35730 | -80.99726 | 24345 ft | 407 kts | 193° |
| 2026-04-19 23:51 | 34.32899 | -80.99995 | 24725 ft | 408 kts | 193° |
| 2026-04-19 23:51 | 34.30057 | -81.00264 | 25105 ft | 409 kts | 193° |
| 2026-04-19 23:51 | 34.27246 | -81.00531 | 25479 ft | 409 kts | 194° |
| 2026-04-19 23:51 | 34.24397 | -81.00802 | 25846 ft | 410 kts | 194° |
| 2026-04-19 23:52 | 34.21546 | -81.01069 | 26206 ft | 411 kts | 194° |
| 2026-04-19 23:52 | 34.18686 | -81.01337 | 26565 ft | 412 kts | 194° |
| 2026-04-19 23:52 | 34.15814 | -81.01605 | 26922 ft | 413 kts | 194° |
| 2026-04-19 23:52 | 34.12938 | -81.01873 | 27197 ft | 414 kts | 193° |
| 2026-04-19 23:53 | 34.10083 | -81.02140 | 27516 ft | 416 kts | 194° |
| 2026-04-19 23:53 | 34.07180 | -81.02410 | 27843 ft | 418 kts | 194° |
| 2026-04-19 23:53 | 34.04270 | -81.02679 | 28172 ft | 419 kts | 194° |
| 2026-04-19 23:53 | 34.01358 | -81.02945 | 28488 ft | 420 kts | 194° |
| 2026-04-19 23:54 | 33.98476 | -81.03204 | 28788 ft | 422 kts | 193° |
| 2026-04-19 23:54 | 33.95527 | -81.03360 | 29088 ft | 426 kts | 191° |
| 2026-04-19 23:54 | 33.92560 | -81.03379 | 29381 ft | 430 kts | 189° |
| 2026-04-19 23:54 | 33.89559 | -81.03313 | 29669 ft | 432 kts | 188° |
| 2026-04-19 23:55 | 33.86535 | -81.03214 | 29874 ft | 435 kts | 188° |
| 2026-04-19 23:55 | 33.83497 | -81.03121 | 30110 ft | 436 kts | 188° |
| 2026-04-19 23:55 | 33.80453 | -81.03051 | 30356 ft | 437 kts | 189° |
| 2026-04-19 23:55 | 33.77451 | -81.03004 | 30652 ft | 436 kts | 189° |
| 2026-04-19 23:56 | 33.74425 | -81.02974 | 30997 ft | 434 kts | 189° |
| 2026-04-19 23:56 | 33.71402 | -81.02957 | 31357 ft | 432 kts | 190° |
| 2026-04-19 23:56 | 33.68396 | -81.02943 | 31709 ft | 430 kts | 190° |
| 2026-04-19 23:56 | 33.65435 | -81.02925 | 32053 ft | 429 kts | 190° |
| 2026-04-19 23:57 | 33.62442 | -81.02902 | 32362 ft | 428 kts | 190° |
| 2026-04-19 23:57 | 33.59467 | -81.02876 | 32688 ft | 427 kts | 190° |
| 2026-04-19 23:57 | 33.56494 | -81.02846 | 33033 ft | 426 kts | 190° |
| 2026-04-19 23:57 | 33.53533 | -81.02816 | 33377 ft | 424 kts | 190° |
| 2026-04-19 23:58 | 33.50624 | -81.02790 | 33726 ft | 422 kts | 190° |
| 2026-04-19 23:58 | 33.47687 | -81.02765 | 34087 ft | 420 kts | 191° |
| 2026-04-19 23:58 | 33.44763 | -81.02740 | 34398 ft | 419 kts | 191° |
| 2026-04-19 23:58 | 33.41841 | -81.02714 | 34673 ft | 418 kts | 191° |
| 2026-04-19 23:59 | 33.38929 | -81.02688 | 34927 ft | 418 kts | 191° |
| 2026-04-19 23:59 | 33.36021 | -81.02659 | 35155 ft | 418 kts | 191° |
| 2026-04-19 23:59 | 33.33101 | -81.02631 | 35325 ft | 419 kts | 190° |
| 2026-04-19 23:59 | 33.30218 | -81.02601 | 35536 ft | 419 kts | 190° |
| 2026-04-20 00:00 | 33.27298 | -81.02571 | 35765 ft | 419 kts | 191° |
| 2026-04-20 00:00 | 33.24382 | -81.02543 | 35988 ft | 418 kts | 191° |
| 2026-04-20 00:00 | 33.21458 | -81.02516 | 36127 ft | 418 kts | 191° |
| 2026-04-20 00:00 | 33.18582 | -81.02487 | 36155 ft | 417 kts | 191° |
| 2026-04-20 00:01 | 33.12775 | -81.02435 | 36156 ft | 416 kts | 191° |
| 2026-04-20 00:02 | 33.04130 | -81.02368 | 36156 ft | 415 kts | 191° |
| 2026-04-20 00:02 | 32.98330 | -81.02314 | 36156 ft | 416 kts | 191° |
| 2026-04-20 00:03 | 32.92535 | -81.02259 | 36157 ft | 416 kts | 191° |
| 2026-04-20 00:03 | 32.86770 | -81.02208 | 36154 ft | 416 kts | 191° |
| 2026-04-20 00:04 | 32.80970 | -81.02147 | 36110 ft | 416 kts | 191° |
| 2026-04-20 00:04 | 32.75196 | -81.02095 | 36117 ft | 418 kts | 191° |
| 2026-04-20 00:05 | 32.69363 | -81.02048 | 36116 ft | 419 kts | 191° |
| 2026-04-20 00:05 | 32.63586 | -81.01994 | 36123 ft | 420 kts | 191° |
| 2026-04-20 00:06 | 32.57716 | -81.01937 | 36123 ft | 420 kts | 191° |
| 2026-04-20 00:06 | 32.52841 | -81.01891 | 36105 ft | 423 kts | 191° |
| 2026-04-20 00:07 | 32.45963 | -81.01966 | 36110 ft | 425 kts | 192° |
| 2026-04-20 00:07 | 32.41027 | -81.02087 | 36109 ft | 426 kts | 192° |
| 2026-04-20 00:08 | 32.35090 | -81.02221 | 36113 ft | 426 kts | 192° |
| 2026-04-20 00:08 | 32.29165 | -81.02332 | 36098 ft | 427 kts | 192° |
| 2026-04-20 00:09 | 32.23208 | -81.02431 | 36108 ft | 428 kts | 192° |
| 2026-04-20 00:09 | 32.17227 | -81.02537 | 36111 ft | 430 kts | 192° |
| 2026-04-20 00:10 | 32.11271 | -81.02642 | 36065 ft | 431 kts | 192° |
| 2026-04-20 00:10 | 32.05253 | -81.02747 | 36066 ft | 431 kts | 192° |
| 2026-04-20 00:11 | 31.99269 | -81.02855 | 36071 ft | 433 kts | 193° |
| 2026-04-20 00:11 | 31.93228 | -81.03005 | 36089 ft | 434 kts | 193° |
| 2026-04-20 00:12 | 31.87172 | -81.03179 | 36098 ft | 433 kts | 193° |
| 2026-04-20 00:12 | 31.81181 | -81.03353 | 36103 ft | 433 kts | 193° |
| 2026-04-20 00:13 | 31.75159 | -81.03522 | 36060 ft | 433 kts | 193° |
| 2026-04-20 00:13 | 31.69127 | -81.03681 | 36090 ft | 432 kts | 193° |
| 2026-04-20 00:14 | 31.63151 | -81.03834 | 36107 ft | 431 kts | 193° |
| 2026-04-20 00:14 | 31.60266 | -81.04147 | 36106 ft | 418 kts | 202° |
| 2026-04-20 00:14 | 31.57486 | -81.04954 | 36107 ft | 405 kts | 210° |
| 2026-04-20 00:14 | 31.54947 | -81.06184 | 36108 ft | 394 kts | 218° |
| 2026-04-20 00:15 | 31.52525 | -81.07686 | 36112 ft | 392 kts | 218° |
| 2026-04-20 00:15 | 31.47678 | -81.10673 | 36072 ft | 393 kts | 218° |
| 2026-04-20 00:16 | 31.42855 | -81.13633 | 36088 ft | 393 kts | 218° |
| 2026-04-20 00:16 | 31.38003 | -81.16605 | 36098 ft | 393 kts | 218° |
| 2026-04-20 00:17 | 31.33139 | -81.19527 | 36104 ft | 395 kts | 217° |
| 2026-04-20 00:17 | 31.28221 | -81.22423 | 36106 ft | 395 kts | 217° |
| 2026-04-20 00:18 | 31.23314 | -81.25317 | 36108 ft | 395 kts | 217° |
| 2026-04-20 00:18 | 31.18196 | -81.27785 | 36094 ft | 412 kts | 204° |
| 2026-04-20 00:18 | 31.15304 | -81.28264 | 36104 ft | 428 kts | 193° |
| 2026-04-20 00:19 | 31.12288 | -81.28273 | 36108 ft | 433 kts | 192° |
| 2026-04-20 00:19 | 31.06289 | -81.28236 | 36110 ft | 433 kts | 192° |
| 2026-04-20 00:20 | 31.00258 | -81.28211 | 36110 ft | 433 kts | 192° |
| 2026-04-20 00:20 | 30.94331 | -81.28201 | 36073 ft | 433 kts | 192° |
| 2026-04-20 00:21 | 30.88321 | -81.28187 | 36083 ft | 433 kts | 192° |
| 2026-04-20 00:21 | 30.82297 | -81.28176 | 36097 ft | 433 kts | 192° |
| 2026-04-20 00:22 | 30.76262 | -81.28163 | 36103 ft | 433 kts | 192° |
| 2026-04-20 00:22 | 30.70219 | -81.28143 | 36109 ft | 434 kts | 192° |
| 2026-04-20 00:23 | 30.64204 | -81.28130 | 35128 ft | 441 kts | 191° |
| 2026-04-20 00:23 | 30.61110 | -81.28130 | 34315 ft | 446 kts | 190° |
| 2026-04-20 00:23 | 30.57982 | -81.28066 | 33683 ft | 448 kts | 188° |
| 2026-04-20 00:23 | 30.54886 | -81.27874 | 33459 ft | 444 kts | 186° |
| 2026-04-20 00:24 | 30.51794 | -81.27611 | 33057 ft | 444 kts | 186° |
| 2026-04-20 00:24 | 30.48793 | -81.27326 | 32692 ft | 442 kts | 186° |
| 2026-04-20 00:24 | 30.45726 | -81.27037 | 32322 ft | 440 kts | 186° |
| 2026-04-20 00:24 | 30.42672 | -81.26771 | 31945 ft | 437 kts | 186° |
| 2026-04-20 00:25 | 30.39710 | -81.26536 | 31585 ft | 435 kts | 186° |
| 2026-04-20 00:25 | 30.36686 | -81.26309 | 31214 ft | 433 kts | 187° |
| 2026-04-20 00:25 | 30.33675 | -81.26091 | 30845 ft | 431 kts | 187° |
| 2026-04-20 00:25 | 30.30683 | -81.25880 | 30475 ft | 429 kts | 187° |
| 2026-04-20 00:26 | 30.27706 | -81.25669 | 30106 ft | 428 kts | 187° |
| 2026-04-20 00:26 | 30.24741 | -81.25454 | 29712 ft | 426 kts | 186° |
| 2026-04-20 00:26 | 30.21784 | -81.25235 | 29337 ft | 424 kts | 186° |
| 2026-04-20 00:26 | 30.18851 | -81.25014 | 28983 ft | 421 kts | 186° |
| 2026-04-20 00:27 | 30.15962 | -81.24796 | 28624 ft | 419 kts | 186° |
| 2026-04-20 00:27 | 30.13049 | -81.24574 | 28275 ft | 417 kts | 186° |
| 2026-04-20 00:27 | 30.10159 | -81.24355 | 27884 ft | 415 kts | 186° |
| 2026-04-20 00:27 | 30.07284 | -81.24140 | 27576 ft | 413 kts | 186° |
| 2026-04-20 00:28 | 30.04426 | -81.23927 | 27228 ft | 411 kts | 186° |
| 2026-04-20 00:28 | 30.01573 | -81.23715 | 26880 ft | 409 kts | 186° |
| 2026-04-20 00:28 | 29.98735 | -81.23507 | 26534 ft | 407 kts | 186° |
| 2026-04-20 00:28 | 29.95952 | -81.23301 | 26194 ft | 405 kts | 186° |
| 2026-04-20 00:29 | 29.93138 | -81.23091 | 25849 ft | 403 kts | 185° |
| 2026-04-20 00:29 | 29.90347 | -81.22885 | 25510 ft | 401 kts | 185° |
| 2026-04-20 00:29 | 29.87569 | -81.22679 | 25168 ft | 399 kts | 185° |
| 2026-04-20 00:29 | 29.84804 | -81.22474 | 24827 ft | 397 kts | 185° |
| 2026-04-20 00:30 | 29.82051 | -81.22270 | 24468 ft | 395 kts | 185° |
| 2026-04-20 00:30 | 29.79343 | -81.22069 | 24157 ft | 393 kts | 185° |
| 2026-04-20 00:30 | 29.76617 | -81.21863 | 23827 ft | 391 kts | 185° |
| 2026-04-20 00:30 | 29.73889 | -81.21655 | 23457 ft | 389 kts | 185° |
| 2026-04-20 00:31 | 29.71189 | -81.21452 | 23135 ft | 387 kts | 185° |
| 2026-04-20 00:31 | 29.68544 | -81.21250 | 22900 ft | 386 kts | 184° |
| 2026-04-20 00:31 | 29.65832 | -81.21030 | 21922 ft | 395 kts | 184° |
| 2026-04-20 00:31 | 29.63098 | -81.20792 | 21575 ft | 388 kts | 184° |
| 2026-04-20 00:32 | 29.60441 | -81.20549 | 21368 ft | 379 kts | 184° |
| 2026-04-20 00:32 | 29.57819 | -81.20313 | 21168 ft | 376 kts | 184° |
| 2026-04-20 00:32 | 29.55215 | -81.20084 | 20971 ft | 374 kts | 184° |
| 2026-04-20 00:32 | 29.52634 | -81.19862 | 20702 ft | 372 kts | 184° |
| 2026-04-20 00:33 | 29.50076 | -81.19641 | 20504 ft | 372 kts | 184° |
| 2026-04-20 00:33 | 29.47494 | -81.19419 | 20314 ft | 371 kts | 184° |
| 2026-04-20 00:33 | 29.44923 | -81.19197 | 20126 ft | 370 kts | 184° |
| 2026-04-20 00:33 | 29.42356 | -81.18978 | 19934 ft | 371 kts | 184° |
| 2026-04-20 00:34 | 29.39752 | -81.18764 | 19745 ft | 377 kts | 184° |
| 2026-04-20 00:34 | 29.37124 | -81.18544 | 19529 ft | 378 kts | 183° |
| 2026-04-20 00:34 | 29.34532 | -81.18323 | 19322 ft | 377 kts | 183° |
| 2026-04-20 00:34 | 29.31909 | -81.18098 | 19113 ft | 376 kts | 183° |
| 2026-04-20 00:35 | 29.29307 | -81.17874 | 18907 ft | 375 kts | 183° |
| 2026-04-20 00:35 | 29.26726 | -81.17650 | 18704 ft | 374 kts | 183° |
| 2026-04-20 00:35 | 29.24135 | -81.17421 | 18481 ft | 373 kts | 183° |
| 2026-04-20 00:35 | 29.21546 | -81.17193 | 18273 ft | 373 kts | 182° |
| 2026-04-20 00:36 | 29.18953 | -81.16862 | 18057 ft | 377 kts | 174° |
| 2026-04-20 00:36 | 29.16457 | -81.15940 | 17827 ft | 383 kts | 165° |
| 2026-04-20 00:36 | 29.13963 | -81.14842 | 17584 ft | 382 kts | 165° |
| 2026-04-20 00:36 | 29.11483 | -81.13759 | 17368 ft | 380 kts | 165° |
| 2026-04-20 00:37 | 29.09014 | -81.12684 | 17128 ft | 378 kts | 165° |
| 2026-04-20 00:37 | 29.06552 | -81.11615 | 16903 ft | 377 kts | 166° |
| 2026-04-20 00:37 | 29.04085 | -81.10607 | 16688 ft | 374 kts | 167° |
| 2026-04-20 00:37 | 29.01622 | -81.09667 | 16454 ft | 372 kts | 168° |
| 2026-04-20 00:38 | 28.99197 | -81.08770 | 16226 ft | 369 kts | 168° |
| 2026-04-20 00:38 | 28.96743 | -81.08068 | 16126 ft | 355 kts | 178° |
| 2026-04-20 00:38 | 28.94312 | -81.07776 | 15679 ft | 350 kts | 180° |
| 2026-04-20 00:38 | 28.91887 | -81.07508 | 15260 ft | 348 kts | 180° |
| 2026-04-20 00:39 | 28.89511 | -81.07314 | 14854 ft | 342 kts | 186° |
| 2026-04-20 00:39 | 28.87169 | -81.07611 | 14457 ft | 333 kts | 198° |
| 2026-04-20 00:39 | 28.84976 | -81.08391 | 14010 ft | 329 kts | 205° |
| 2026-04-20 00:39 | 28.82833 | -81.09279 | 13617 ft | 326 kts | 205° |
| 2026-04-20 00:40 | 28.80697 | -81.10169 | 13183 ft | 324 kts | 204° |
| 2026-04-20 00:40 | 28.78619 | -81.11037 | 12824 ft | 321 kts | 204° |
| 2026-04-20 00:40 | 28.76587 | -81.11888 | 12466 ft | 319 kts | 204° |
| 2026-04-20 00:40 | 28.74507 | -81.12757 | 12166 ft | 315 kts | 204° |
| 2026-04-20 00:41 | 28.72484 | -81.13595 | 12035 ft | 303 kts | 204° |
| 2026-04-20 00:41 | 28.70517 | -81.14394 | 11807 ft | 297 kts | 200° |
| 2026-04-20 00:41 | 28.68517 | -81.14942 | 11422 ft | 301 kts | 197° |
| 2026-04-20 00:41 | 28.66468 | -81.15478 | 11026 ft | 301 kts | 196° |
| 2026-04-20 00:42 | 28.64431 | -81.16004 | 10695 ft | 298 kts | 196° |
| 2026-04-20 00:42 | 28.62413 | -81.16528 | 10327 ft | 296 kts | 196° |
| 2026-04-20 00:42 | 28.60426 | -81.17046 | 9980 ft | 295 kts | 195° |
| 2026-04-20 00:42 | 28.58433 | -81.17566 | 9696 ft | 289 kts | 195° |
| 2026-04-20 00:43 | 28.56504 | -81.18064 | 9562 ft | 279 kts | 195° |
| 2026-04-20 00:43 | 28.54638 | -81.18521 | 9334 ft | 273 kts | 191° |
| 2026-04-20 00:43 | 28.52747 | -81.18640 | 8991 ft | 272 kts | 183° |
| 2026-04-20 00:43 | 28.50853 | -81.18656 | 8630 ft | 270 kts | 182° |
| 2026-04-20 00:44 | 28.48989 | -81.18669 | 8294 ft | 269 kts | 182° |
| 2026-04-20 00:44 | 28.47114 | -81.18685 | 7938 ft | 267 kts | 182° |
| 2026-04-20 00:44 | 28.45257 | -81.18700 | 7582 ft | 266 kts | 182° |
| 2026-04-20 00:44 | 28.43410 | -81.18716 | 7246 ft | 265 kts | 182° |
| 2026-04-20 00:45 | 28.41573 | -81.18731 | 6898 ft | 263 kts | 181° |
| 2026-04-20 00:45 | 28.39731 | -81.18743 | 6552 ft | 262 kts | 181° |
| 2026-04-20 00:45 | 28.37934 | -81.18754 | 6196 ft | 261 kts | 181° |
| 2026-04-20 00:45 | 28.36117 | -81.18768 | 5820 ft | 260 kts | 181° |
| 2026-04-20 00:46 | 28.34309 | -81.18779 | 5439 ft | 261 kts | 181° |
| 2026-04-20 00:46 | 28.32498 | -81.18791 | 5141 ft | 258 kts | 181° |
| 2026-04-20 00:46 | 28.30732 | -81.18804 | 5014 ft | 248 kts | 181° |
| 2026-04-20 00:46 | 28.29013 | -81.18807 | 4998 ft | 246 kts | 186° |
| 2026-04-20 00:47 | 28.27410 | -81.19312 | 5011 ft | 238 kts | 210° |
| 2026-04-20 00:47 | 28.26192 | -81.20475 | 5007 ft | 224 kts | 234° |
| 2026-04-20 00:47 | 28.25524 | -81.22041 | 4653 ft | 222 kts | 259° |
| 2026-04-20 00:47 | 28.25496 | -81.23775 | 4268 ft | 219 kts | 279° |
| 2026-04-20 00:48 | 28.25710 | -81.25478 | 3997 ft | 215 kts | 279° |
| 2026-04-20 00:48 | 28.25906 | -81.27140 | 3747 ft | 210 kts | 278° |
| 2026-04-20 00:48 | 28.26094 | -81.28755 | 3531 ft | 208 kts | 281° |
| 2026-04-20 00:48 | 28.26577 | -81.30274 | 3209 ft | 201 kts | 301° |
| 2026-04-20 00:49 | 28.27470 | -81.31486 | 2795 ft | 198 kts | 320° |
| 2026-04-20 00:49 | 28.28626 | -81.32249 | 2543 ft | 189 kts | 339° |
| 2026-04-20 00:49 | 28.29858 | -81.32535 | 2333 ft | 176 kts | 356° |
| 2026-04-20 00:49 | 28.31035 | -81.32543 | 2113 ft | 163 kts | 356° |
| 2026-04-20 00:50 | 28.32148 | -81.32558 | 1908 ft | 159 kts | 356° |
| 2026-04-20 00:50 | 28.33219 | -81.32571 | 1699 ft | 148 kts | 356° |
| 2026-04-20 00:50 | 28.34150 | -81.32582 | 1532 ft | 144 kts | 357° |
| 2026-04-20 00:50 | 28.35186 | -81.32595 | 1334 ft | 143 kts | 356° |
| 2026-04-20 00:51 | 28.36163 | -81.32605 | 1153 ft | 142 kts | 357° |
| 2026-04-20 00:51 | 28.37138 | -81.32613 | 978 ft | 141 kts | 356° |
| 2026-04-20 00:51 | 28.38142 | -81.32625 | 800 ft | 145 kts | 359° |
| 2026-04-20 00:51 | 28.38928 | -81.32633 | 665 ft | 144 kts | 354° |
| 2026-04-20 00:52 | 28.39953 | -81.32643 | 421 ft | 149 kts | 356° |
| 2026-04-20 00:52 | 28.40988 | -81.32658 | 275 ft | 151 kts | 357° |
| 2026-04-20 00:52 | 28.42030 | -81.32650 | 118 ft | 148 kts | 358° |
| 2026-04-20 00:52 | 28.42932 | -81.32683 | 104 ft | 111 kts | 353° |
| 2026-04-20 00:53 | 28.43500 | -81.32689 | 100 ft | 61 kts | 360° |
| 2026-04-20 00:53 | 28.43884 | -81.32696 | 99 ft | 57 kts | 359° |
| 2026-04-20 00:53 | 28.44286 | -81.32693 | 99 ft | 57 kts | 0° |
| 2026-04-20 00:53 | 28.44604 | -81.32701 | 102 ft | 29 kts | 2° |
| 2026-04-20 00:54 | 28.44709 | -81.32641 | 101 ft | 14 kts | 78° |
| 2026-04-20 00:54 | 28.44710 | -81.32528 | 99 ft | 14 kts | 93° |
| 2026-04-20 00:54 | 28.44707 | -81.32417 | 98 ft | 13 kts | 84° |
| 2026-04-20 00:54 | 28.44711 | -81.32322 | 98 ft | 12 kts | 93° |
| 2026-04-20 00:55 | 28.44713 | -81.32234 | 98 ft | 10 kts | 85° |
| 2026-04-20 00:55 | 28.44717 | -81.32156 | 101 ft | 9 kts | 86° |
| 2026-04-20 00:55 | 28.44719 | -81.32109 | 101 ft | 8 kts | 89° |
| 2026-04-20 00:55 | 28.44716 | -81.32031 | 100 ft | 7 kts | 95° |
| 2026-04-20 00:56 | 28.44712 | -81.31985 | 99 ft | 5 kts | 92° |
| 2026-04-20 00:56 | 28.44710 | -81.31949 | 98 ft | 10 kts | 98° |
| 2026-04-20 00:56 | 28.44630 | -81.31906 | 99 ft | 19 kts | 179° |
| 2026-04-20 00:56 | 28.44449 | -81.31902 | 99 ft | 19 kts | 178° |
| 2026-04-20 00:57 | 28.44359 | -81.31904 | 100 ft | 19 kts | 182° |
| 2026-04-20 00:57 | 28.44211 | -81.31902 | 98 ft | 15 kts | 177° |
| 2026-04-20 00:57 | 28.44143 | -81.31900 | 100 ft | 14 kts | 180° |
| 2026-04-20 00:57 | 28.44048 | -81.31894 | 98 ft | 13 kts | 169° |
| 2026-04-20 00:58 | 28.43963 | -81.31866 | 101 ft | 12 kts | 162° |
| 2026-04-20 00:58 | 28.43885 | -81.31846 | 99 ft | 11 kts | 162° |
| 2026-04-20 00:58 | 28.43850 | -81.31788 | 101 ft | 8 kts | 96° |
| 2026-04-20 00:58 | 28.43848 | -81.31729 | 101 ft | 5 kts | 100° |
| 2026-04-20 00:59 | 28.43845 | -81.31721 | 103 ft | 5 kts | 108° |
| 2026-04-20 00:59 | 28.43787 | -81.31659 | 104 ft | 13 kts | 147° |
| 2026-04-20 00:59 | 28.43731 | -81.31620 | 102 ft | 9 kts | 153° |
| 2026-04-20 00:59 | 28.43666 | -81.31626 | 101 ft | 6 kts | 205° |
| 2026-04-20 01:00 | 28.43631 | -81.31637 | 98 ft | 4 kts | 183° |
| 2026-04-20 01:00 | 28.43608 | -81.31618 | 97 ft | 4 kts | 124° |
| 2026-04-20 01:00 | 28.43600 | -81.31601 | 95 ft | 3 kts | 119° |
| 2026-04-20 01:00 | 28.43593 | -81.31586 | 94 ft | 2 kts | 115° |
| 2026-04-20 01:01 | 28.43590 | -81.31577 | 94 ft | 1 kts | 114° |
| 2026-04-20 01:01 | 28.43589 | -81.31574 | 94 ft | 0 kts | 114° |
| 2026-04-20 01:01 | 28.43588 | -81.31574 | 94 ft | 0 kts | 114° |
| 2026-04-20 01:01 | 28.43587 | -81.31571 | 94 ft | 0 kts | 114° |
| 2026-04-20 01:02 | 28.43587 | -81.31569 | 94 ft | 0 kts | 114° |
| 2026-04-20 01:02 | 28.43586 | -81.31568 | 94 ft | 0 kts | 114° |
| 2026-04-20 01:02 | 28.43586 | -81.31566 | 94 ft | 0 kts | 114° |